This is the latest recevied weather packets stored in our database for station/object R2BLN-13. If no packets are shown the sender has not sent any weather packets the latest 10 day(s).
| Time | Temp. | Humidity | Pressure | Rain* | Wind** | Luminosity | Snow |
|---|---|---|---|---|---|---|---|
| 1788079006 | 26.67° C | 38% | 994.6 hPa | - | - | - | - |
| 1788078406 | 27.78° C | 36% | 994.6 hPa | - | - | - | - |
| 1788077806 | 27.22° C | 34% | 994.5 hPa | - | - | - | - |
| 1788077206 | 29.44° C | 29% | 994.6 hPa | - | - | - | - |
| 1788076606 | 32.78° C | 27% | 994.7 hPa | - | - | - | - |
| 1788076006 | 34.44° C | 23% | 994.8 hPa | - | - | - | - |
| 1788075406 | 35° C | 25% | 994.9 hPa | - | - | - | - |
| 1788074806 | 34.44° C | 26% | 995 hPa | - | - | - | - |
| 1788074206 | 31.11° C | 29% | 995 hPa | - | - | - | - |
| 1788073606 | 36.11° C | 22% | 995 hPa | - | - | - | - |
| 1788073006 | 37.78° C | 21% | 995.1 hPa | - | - | - | - |
| 1788072406 | 40° C | 20% | 995.3 hPa | - | - | - | - |
| 1788071806 | 41.67° C | 18% | 995.3 hPa | - | - | - | - |
| 1788071206 | 42.22° C | 19% | 995.4 hPa | - | - | - | - |
| 1788070606 | 37.78° C | 22% | 995.7 hPa | - | - | - | - |
| 1788070006 | 38.33° C | 23% | 995.8 hPa | - | - | - | - |
| 1788069406 | 35° C | 26% | 995.9 hPa | - | - | - | - |
| 1788068806 | 28.89° C | 43% | 996.3 hPa | - | - | - | - |
| 1788068206 | 21.67° C | 51% | 996.4 hPa | - | - | - | - |
| 1788067605 | 17.78° C | 61% | 996.7 hPa | - | - | - | - |
| 1788066999 | 16.11° C | 65% | 996.8 hPa | - | - | - | - |
| 1788066376 | 15.56° C | 65% | 996.8 hPa | - | - | - | - |
| 1788065776 | 14.44° C | 67% | 996.8 hPa | - | - | - | - |
| 1788065175 | 14.44° C | 65% | 996.9 hPa | - | - | - | - |
| 1788064576 | 14.44° C | 68% | 997 hPa | - | - | - | - |
* Rain since midnight (hover to see other rain measurements)
** Current wind speed in m/s (hover to see current wind gust speed)